Norman Manley International Airport
MKJP : rendu visible

Aérodrome :











RETROUVEZ-NOUS SUR...

 
LOGIN :

S'inscrire | Disclaimer

   EN    FR    IT 

 









Légende :    VFR   VFR Marginal   IFR   IFR Intensif   IFR Très Intensif
Visi : 
Plafond : 
>= 8 km
>= 3000ft
5 à 8 km
1000 à 3000 ft
1500m à 5 km
500 à 1000 ft
800 à 1500m
200 à 500 ft
< 800m
< 200 ft
Symboles :   Orages  Brouillard  Fortes neiges  Fortes précipitations  Vent > 20 kt






- Altitude de l'aérodrome : 10 ft
- Code IATA : KIN


MKJP - Norman Manley International

DERNIER METAR :
  • 141300Z 35006KT 9999 FEW022 28/21 Q1014

METARs EXPIRÉS :
  • 141200Z 34005KT 9999 FEW022 27/22 Q1013
  • 141100Z 35006KT 9999 FEW022 26/21 Q1013

TAF TAF MKJP
Valide du 14 à 12h jusqu'au 15 à 12h UTC


141115Z 1412/1512 35005KT 9999 FEW022
BECMG 1414/1416 15010KT FEW022 FEW024CB
TEMPO 1417/1424 7000 TSRA SCT018 SCT020CB
BECMG 1501/1503 35005KT



MET'MAP, la Météo Aéronautique d'un coup d'oeil ! - Copyright ORBIFLY Décembre 2007 - Disclaimer

ORBIFLY MET'MAP TEAM :

Programmation & Développement : Alexandra Zaïnal
Conception & Développement : Baudouin d'Aumeries
Co-Programmation & Développement : Marc-Olivier Méhu
Soutien technique & logistique : Manuel Goepfert

Contact : metmap@orbifly.com




SOURCES & CREDITS :

   NOAA       Earth
Advisory